createdAt,value
2018-02-16T00:00:50.864Z,52.23
2018-02-16T00:03:19.992Z,51.50
2018-02-16T00:05:50.065Z,53.20
2018-02-16T00:08:17.832Z,56.80
2018-02-16T00:10:45.499Z,53.00
2018-02-16T00:13:14.727Z,53.57
2018-02-16T00:15:43.118Z,55.07
2018-02-16T00:18:11.530Z,59.17
2018-02-16T00:20:39.527Z,53.30
2018-02-16T00:23:07.161Z,54.43
2018-02-16T00:25:34.791Z,55.40
2018-02-16T00:28:02.461Z,53.60
2018-02-16T00:30:30.068Z,55.87
2018-02-16T00:32:58.645Z,54.97
2018-02-16T00:35:26.415Z,51.87
2018-02-16T00:37:54.550Z,53.57
2018-02-16T00:40:22.190Z,52.13
2018-02-16T00:42:49.874Z,49.20
2018-02-16T00:45:17.537Z,56.03
2018-02-16T00:47:46.505Z,54.80
2018-02-16T00:50:14.986Z,54.23
2018-02-16T00:52:43.448Z,53.63
2018-02-16T00:55:11.877Z,53.13
2018-02-16T00:57:39.531Z,53.87
2018-02-16T01:00:07.823Z,53.17
2018-02-16T01:02:36.109Z,50.07
2018-02-16T01:05:05.171Z,53.00
2018-02-16T01:07:34.023Z,54.30
2018-02-16T01:10:04.086Z,51.37
2018-02-16T01:12:32.193Z,55.63
2018-02-16T01:14:59.807Z,54.40
2018-02-16T01:17:27.827Z,50.93
2018-02-16T01:19:56.985Z,55.40
2018-02-16T01:22:30.606Z,53.07
2018-02-16T01:24:58.305Z,55.33
2018-02-16T01:27:26.269Z,49.67
2018-02-16T01:29:53.888Z,52.30
2018-02-16T01:32:23.948Z,54.27
2018-02-16T01:34:51.892Z,53.97
2018-02-16T01:37:20.408Z,50.03
2018-02-16T01:39:48.083Z,52.60
2018-02-16T01:42:16.973Z,50.33
2018-02-16T01:44:45.813Z,50.13
2018-02-16T01:47:15.564Z,50.63
2018-02-16T01:49:54.997Z,52.17
2018-02-16T01:52:22.611Z,53.93
2018-02-16T01:54:50.827Z,52.43
2018-02-16T01:57:18.828Z,48.93
2018-02-16T01:59:46.460Z,50.33
2018-02-16T02:02:14.105Z,51.50
2018-02-16T02:04:41.758Z,49.27
2018-02-16T02:07:09.442Z,51.87
2018-02-16T02:09:38.383Z,53.27
2018-02-16T02:12:05.998Z,49.57
2018-02-16T02:14:34.147Z,54.50
2018-02-16T02:17:01.789Z,53.03
2018-02-16T02:19:29.400Z,56.17
2018-02-16T02:21:57.016Z,54.63
2018-02-16T02:24:24.677Z,54.93
2018-02-16T02:26:52.853Z,56.03
2018-02-16T02:29:21.363Z,55.50
2018-02-16T02:31:49.013Z,56.53
2018-02-16T02:34:17.629Z,52.17
2018-02-16T02:36:45.241Z,48.57
2018-02-16T02:39:12.862Z,52.07
2018-02-16T02:41:40.472Z,49.53
2018-02-16T02:44:08.106Z,48.43
2018-02-16T02:46:35.743Z,47.63
2018-02-16T02:49:04.513Z,49.47
2018-02-16T02:51:32.174Z,50.40
2018-02-16T02:53:59.968Z,50.47
2018-02-16T02:56:27.616Z,50.10
2018-02-16T02:58:55.991Z,55.03
2018-02-16T03:01:23.597Z,54.93
2018-02-16T03:03:52.561Z,50.67
2018-02-16T03:06:20.208Z,51.90
2018-02-16T03:08:48.652Z,52.50
2018-02-16T03:11:17.070Z,52.30
2018-02-16T03:13:44.736Z,52.70
2018-02-16T03:16:12.903Z,50.90
2018-02-16T03:18:40.656Z,51.73
2018-02-16T03:21:08.333Z,51.73
2018-02-16T03:23:36.095Z,51.73
2018-02-16T03:26:03.722Z,50.93
2018-02-16T03:28:32.133Z,52.10
2018-02-16T03:30:59.795Z,50.47
2018-02-16T03:33:27.428Z,66.20
2018-02-16T03:35:55.933Z,54.30
2018-02-16T03:38:23.551Z,56.37
2018-02-16T03:40:52.397Z,54.37
2018-02-16T03:43:20.142Z,53.33
2018-02-16T03:45:47.810Z,56.30
2018-02-16T03:48:15.767Z,52.67
2018-02-16T03:50:43.499Z,53.23
2018-02-16T03:53:11.981Z,53.53
2018-02-16T03:55:40.344Z,50.90
2018-02-16T03:58:08.071Z,55.83
2018-02-16T04:00:35.732Z,57.00
2018-02-16T04:03:03.324Z,50.73
2018-02-16T04:05:30.958Z,56.03
2018-02-16T04:07:58.560Z,56.07
2018-02-16T04:10:26.227Z,53.67
2018-02-16T04:12:54.713Z,51.17
2018-02-16T04:15:23.377Z,54.90
2018-02-16T04:17:51.068Z,54.30
2018-02-16T04:20:18.738Z,58.00
2018-02-16T04:22:46.391Z,58.20
2018-02-16T04:25:14.086Z,63.80
2018-02-16T04:27:41.708Z,58.60
2018-02-16T04:30:10.115Z,61.20
2018-02-16T04:32:37.740Z,57.93
2018-02-16T04:35:08.027Z,61.97
2018-02-16T04:37:35.659Z,64.73
2018-02-16T04:40:03.288Z,65.27
2018-02-16T04:42:31.700Z,61.63
2018-02-16T04:44:59.293Z,58.23
2018-02-16T04:47:27.124Z,58.30
2018-02-16T04:49:54.785Z,59.93
2018-02-16T04:52:22.437Z,63.37
2018-02-16T04:54:50.045Z,63.80
2018-02-16T04:57:17.700Z,59.80
2018-02-16T04:59:45.316Z,55.20
2018-02-16T05:02:12.990Z,60.13
2018-02-16T05:04:40.646Z,59.77
2018-02-16T05:07:08.247Z,56.97
2018-02-16T05:09:35.962Z,60.10
2018-02-16T05:12:05.007Z,58.67
2018-02-16T05:14:32.770Z,58.50
2018-02-16T05:17:00.461Z,59.77
2018-02-16T05:19:28.895Z,60.43
2018-02-16T05:21:56.579Z,55.77
2018-02-16T05:24:24.349Z,54.10
2018-02-16T05:26:52.061Z,56.73
2018-02-16T05:29:19.670Z,56.37
2018-02-16T05:31:47.379Z,56.73
2018-02-16T05:34:16.127Z,52.23
2018-02-16T05:36:44.546Z,51.77
2018-02-16T05:39:12.199Z,51.27
2018-02-16T05:41:39.815Z,51.57
2018-02-16T05:44:07.436Z,57.50
2018-02-16T05:46:35.080Z,52.67
2018-02-16T05:49:02.706Z,55.20
2018-02-16T05:51:30.314Z,51.23
2018-02-16T05:53:57.942Z,54.67
2018-02-16T05:56:26.325Z,50.93
2018-02-16T05:58:54.731Z,53.87
2018-02-16T06:01:22.392Z,50.33
2018-02-16T06:03:51.780Z,52.30
2018-02-16T06:06:19.426Z,49.87
2018-02-16T06:08:48.841Z,49.63
2018-02-16T06:11:16.407Z,50.30
2018-02-16T06:13:44.109Z,46.03
2018-02-16T06:16:11.732Z,45.83
2018-02-16T06:18:39.390Z,46.53
2018-02-16T06:21:06.983Z,50.60
2018-02-16T06:23:34.594Z,40.87
2018-02-16T06:26:02.240Z,42.27
2018-02-16T06:28:30.639Z,46.63
2018-02-16T06:30:59.128Z,44.47
2018-02-16T06:33:26.750Z,42.60
2018-02-16T06:35:54.382Z,42.70
2018-02-16T06:38:22.186Z,42.00
2018-02-16T06:40:50.592Z,44.53
2018-02-16T06:43:18.376Z,47.47
2018-02-16T06:45:46.592Z,46.57
2018-02-16T06:48:14.224Z,47.57
2018-02-16T06:50:41.931Z,50.77
2018-02-16T06:53:10.363Z,46.67
2018-02-16T06:55:38.319Z,45.33
2018-02-16T06:58:05.981Z,47.73
2018-02-16T07:00:33.638Z,48.97
2018-02-16T07:03:01.352Z,44.40
2018-02-16T07:05:29.021Z,47.67
2018-02-16T07:07:56.699Z,46.83
2018-02-16T07:10:25.125Z,43.43
2018-02-16T07:12:52.893Z,44.13
2018-02-16T07:15:20.567Z,44.53
2018-02-16T07:17:48.254Z,45.57
2018-02-16T07:20:15.857Z,46.37
2018-02-16T07:22:43.505Z,47.77
2018-02-16T07:25:11.910Z,45.07
2018-02-16T07:27:40.782Z,43.60
2018-02-16T07:30:08.412Z,45.57
2018-02-16T07:32:36.835Z,46.90
2018-02-16T07:35:04.491Z,45.33
2018-02-16T07:37:32.153Z,45.63
2018-02-16T07:40:01.030Z,45.83
2018-02-16T07:42:28.644Z,41.87
2018-02-16T07:44:56.245Z,44.97
2018-02-16T07:47:24.021Z,41.07
2018-02-16T07:49:51.625Z,40.03
2018-02-16T07:52:19.251Z,44.50
2018-02-16T07:54:46.838Z,42.17
2018-02-16T07:57:14.524Z,42.60
2018-02-16T07:59:42.165Z,40.53
2018-02-16T08:02:09.812Z,42.47
2018-02-16T08:04:37.445Z,39.43
2018-02-16T08:07:05.073Z,39.40
2018-02-16T08:09:33.469Z,39.20
2018-02-16T08:12:01.116Z,39.10
2018-02-16T08:14:29.539Z,35.80
2018-02-16T08:16:57.208Z,33.90
2018-02-16T08:19:25.596Z,34.30
2018-02-16T08:21:53.224Z,34.07
2018-02-16T08:24:20.961Z,33.57
2018-02-16T08:26:49.368Z,34.17
2018-02-16T08:29:17.009Z,33.90
2018-02-16T08:31:44.693Z,33.83
2018-02-16T08:36:46.602Z,31.00
2018-02-16T08:39:14.283Z,31.40
2018-02-16T08:41:41.953Z,31.90
2018-02-16T08:44:10.321Z,31.70
2018-02-16T08:46:37.998Z,30.63
2018-02-16T08:49:06.368Z,29.20
2018-02-16T08:51:34.007Z,31.47
2018-02-16T08:54:01.631Z,29.37
2018-02-16T08:56:29.282Z,29.80
2018-02-16T08:58:56.902Z,29.70
2018-02-16T09:01:24.617Z,28.83
2018-02-16T09:03:52.238Z,25.43
2018-02-16T09:06:20.716Z,24.97
2018-02-16T09:08:49.121Z,24.60
2018-02-16T09:11:18.169Z,26.63
2018-02-16T09:13:45.855Z,25.17
2018-02-16T09:16:14.175Z,23.97
2018-02-16T09:18:41.831Z,23.73
2018-02-16T09:21:09.459Z,22.70
2018-02-16T09:23:37.922Z,23.60
2018-02-16T09:26:05.631Z,22.23
2018-02-16T09:28:33.283Z,21.17
2018-02-16T09:31:00.982Z,23.63
2018-02-16T09:33:28.647Z,22.00
2018-02-16T09:35:59.047Z,22.43
2018-02-16T09:38:26.686Z,22.53
2018-02-16T09:40:55.134Z,20.90
2018-02-16T09:43:22.846Z,21.77
2018-02-16T09:45:51.371Z,21.07
2018-02-16T09:48:19.064Z,20.83
2018-02-16T09:50:47.453Z,19.87
2018-02-16T09:53:15.086Z,20.23
2018-02-16T09:55:43.525Z,20.03
2018-02-16T09:58:11.194Z,20.80
2018-02-16T10:00:39.701Z,20.67
2018-02-16T10:03:08.104Z,20.00
2018-02-16T10:05:35.734Z,23.00
2018-02-16T10:08:04.197Z,22.73
2018-02-16T10:10:31.844Z,20.97
2018-02-16T10:12:59.546Z,22.50
2018-02-16T10:15:27.201Z,21.33
2018-02-16T10:17:55.598Z,21.33
2018-02-16T10:20:23.257Z,21.80
2018-02-16T10:22:50.861Z,23.93
2018-02-16T10:25:18.549Z,23.63
2018-02-16T10:27:46.951Z,21.10
2018-02-16T10:30:15.395Z,22.53
2018-02-16T10:32:43.049Z,23.43
2018-02-16T10:35:10.673Z,21.70
2018-02-16T10:37:38.336Z,21.63
2018-02-16T10:40:06.452Z,22.23
2018-02-16T10:42:34.085Z,22.53
2018-02-16T10:45:01.728Z,23.87
2018-02-16T10:47:29.388Z,23.53
2018-02-16T10:49:57.672Z,21.93
2018-02-16T10:52:25.335Z,23.87
2018-02-16T10:54:52.988Z,23.70
2018-02-16T10:57:21.650Z,24.53
2018-02-16T10:59:50.026Z,21.83
2018-02-16T11:02:23.892Z,23.07
2018-02-16T11:04:57.317Z,21.60
2018-02-16T11:07:31.280Z,21.93
2018-02-16T11:09:58.936Z,22.70
2018-02-16T11:12:26.737Z,21.43
2018-02-16T11:14:54.380Z,21.27
2018-02-16T11:17:22.073Z,23.97
2018-02-16T11:19:49.738Z,21.20
2018-02-16T11:22:18.129Z,21.43
2018-02-16T11:24:46.550Z,22.00
2018-02-16T11:27:14.182Z,22.50
2018-02-16T11:29:41.787Z,21.80
2018-02-16T11:32:09.457Z,22.30
2018-02-16T11:34:37.069Z,21.60
2018-02-16T11:37:04.971Z,20.73
2018-02-16T11:39:32.706Z,22.07
2018-02-16T11:42:00.346Z,19.40
2018-02-16T11:44:28.962Z,20.03
2018-02-16T11:46:56.649Z,17.70
2018-02-16T11:49:24.376Z,17.37
2018-02-16T11:51:51.968Z,15.63
2018-02-16T11:54:19.641Z,15.07
2018-02-16T11:56:47.259Z,15.40
2018-02-16T11:59:14.897Z,15.70
2018-02-16T12:01:43.269Z,15.03
2018-02-16T12:04:11.693Z,15.53
2018-02-16T12:06:39.311Z,14.10
2018-02-16T12:09:07.816Z,15.07
2018-02-16T12:11:36.244Z,14.10
2018-02-16T12:14:03.854Z,14.63
2018-02-16T12:16:32.282Z,14.20
2018-02-16T12:18:59.915Z,15.13
2018-02-16T12:21:27.622Z,14.30
2018-02-16T12:23:55.235Z,15.47
2018-02-16T12:26:22.930Z,15.43
2018-02-16T12:28:50.576Z,15.33
2018-02-16T12:31:18.274Z,16.07
2018-02-16T12:33:46.303Z,17.70
2018-02-16T12:36:14.005Z,16.40
2018-02-16T12:38:41.751Z,16.53
2018-02-16T12:41:09.351Z,15.87
2018-02-16T12:43:37.004Z,17.07
2018-02-16T12:46:05.399Z,15.00
2018-02-16T12:48:33.806Z,15.53
2018-02-16T12:51:01.562Z,16.53
2018-02-16T12:53:29.231Z,15.23
2018-02-16T12:55:56.859Z,14.50
2018-02-16T12:58:25.269Z,14.80
2018-02-16T13:00:55.448Z,14.43
2018-02-16T13:03:24.734Z,13.80
2018-02-16T13:05:52.393Z,14.17
2018-02-16T13:08:20.067Z,14.37
2018-02-16T13:10:47.704Z,14.00
2018-02-16T13:13:15.370Z,14.13
2018-02-16T13:15:42.998Z,15.17
2018-02-16T13:18:10.683Z,15.77
2018-02-16T13:20:39.228Z,15.43
2018-02-16T13:23:06.868Z,16.03
2018-02-16T13:25:35.300Z,15.60
2018-02-16T13:28:02.919Z,15.30
2018-02-16T13:30:30.740Z,15.70
2018-02-16T13:32:58.397Z,16.83
2018-02-16T13:35:26.053Z,16.77
2018-02-16T13:37:53.719Z,14.60
2018-02-16T13:40:21.436Z,16.20
2018-02-16T13:42:49.056Z,17.53
2018-02-16T13:45:16.988Z,16.37
2018-02-16T13:47:44.906Z,17.43
2018-02-16T13:50:12.679Z,17.53
2018-02-16T13:52:41.143Z,16.70
2018-02-16T13:55:08.815Z,17.40
2018-02-16T13:57:36.505Z,16.77
2018-02-16T14:00:05.257Z,16.60
2018-02-16T14:02:32.939Z,15.87
2018-02-16T14:05:00.633Z,16.17
2018-02-16T14:07:28.399Z,16.10
2018-02-16T14:09:56.023Z,15.53
2018-02-16T14:12:24.395Z,17.83
2018-02-16T14:14:52.802Z,15.77
2018-02-16T14:17:20.524Z,15.60
2018-02-16T14:19:49.034Z,15.90
2018-02-16T14:22:17.471Z,15.80
2018-02-16T14:24:45.165Z,16.40
2018-02-16T14:27:12.920Z,15.67
2018-02-16T14:29:40.687Z,17.97
2018-02-16T14:32:08.304Z,16.93
2018-02-16T14:34:35.915Z,18.80
2018-02-16T14:37:04.333Z,17.63
2018-02-16T14:39:31.952Z,17.83
2018-02-16T14:42:00.472Z,17.17
2018-02-16T14:44:28.128Z,16.87
2018-02-16T14:46:55.788Z,17.70
2018-02-16T14:49:23.560Z,24.77
2018-02-16T14:51:51.229Z,26.47
2018-02-16T14:54:18.922Z,25.57
2018-02-16T14:56:46.523Z,26.33
2018-02-16T14:59:14.270Z,25.47
2018-02-16T15:01:42.656Z,32.57
2018-02-16T15:04:11.079Z,25.43
2018-02-16T15:06:38.733Z,20.33
2018-02-16T15:09:06.422Z,21.50
2018-02-16T15:11:34.064Z,21.13
2018-02-16T15:14:01.743Z,20.60
2018-02-16T15:16:30.226Z,20.10
2018-02-16T15:18:57.946Z,19.20
2018-02-16T15:21:25.601Z,20.80
2018-02-16T15:23:54.380Z,19.47
2018-02-16T15:26:22.054Z,22.27
2018-02-16T15:28:49.728Z,21.60
2018-02-16T15:31:17.353Z,21.17
2018-02-16T15:33:45.830Z,21.60
2018-02-16T15:36:14.253Z,23.90
2018-02-16T15:38:42.002Z,23.50
2018-02-16T15:41:09.797Z,21.27
2018-02-16T15:43:37.757Z,22.47
2018-02-16T15:46:05.462Z,23.70
2018-02-16T15:48:33.884Z,22.73
2018-02-16T15:51:01.539Z,23.77
2018-02-16T15:53:29.269Z,22.53
2018-02-16T15:55:57.644Z,24.23
2018-02-16T15:58:26.104Z,25.30
2018-02-16T16:00:53.734Z,23.43
2018-02-16T16:03:21.387Z,22.80
2018-02-16T16:05:49.031Z,25.90
2018-02-16T16:08:16.916Z,25.23
2018-02-16T16:10:44.578Z,24.53
2018-02-16T16:13:12.193Z,22.40
2018-02-16T16:15:40.682Z,23.67
2018-02-16T16:18:09.134Z,23.50
2018-02-16T16:20:37.066Z,25.00
2018-02-16T16:23:05.147Z,23.87
2018-02-16T16:25:32.875Z,23.97
2018-02-16T16:28:01.304Z,25.80
2018-02-16T16:30:29.052Z,24.90
2018-02-16T16:32:56.739Z,23.23
2018-02-16T16:35:24.417Z,26.53
2018-02-16T16:37:52.889Z,26.67
2018-02-16T16:40:20.828Z,27.47
2018-02-16T16:42:48.497Z,30.27
2018-02-16T16:45:16.239Z,30.77
2018-02-16T16:47:43.934Z,31.13
2018-02-16T16:50:11.557Z,31.87
2018-02-16T16:52:39.260Z,31.77
2018-02-16T16:55:07.014Z,34.20
2018-02-16T16:57:34.625Z,34.20
2018-02-16T17:00:02.315Z,32.60
2018-02-16T17:02:30.121Z,32.00
2018-02-16T17:04:57.790Z,32.87
2018-02-16T17:07:26.410Z,30.23
2018-02-16T17:09:54.394Z,31.17
2018-02-16T17:12:22.225Z,31.87
2018-02-16T17:14:50.136Z,32.23
2018-02-16T17:17:17.793Z,31.83
2018-02-16T17:19:45.490Z,33.20
2018-02-16T17:22:13.184Z,30.60
2018-02-16T17:24:40.966Z,30.30
2018-02-16T17:27:08.724Z,30.17
2018-02-16T17:29:36.413Z,33.00
2018-02-16T17:32:04.100Z,29.77
2018-02-16T17:34:31.713Z,33.27
2018-02-16T17:36:59.380Z,32.60
2018-02-16T17:39:27.685Z,32.53
2018-02-16T17:41:55.536Z,36.10
2018-02-16T17:44:23.388Z,36.67
2018-02-16T17:46:51.048Z,35.67
2018-02-16T17:49:18.770Z,36.80
2018-02-16T17:51:47.420Z,39.13
2018-02-16T17:54:15.084Z,39.43
2018-02-16T17:56:42.806Z,36.90
2018-02-16T17:59:10.473Z,37.20
2018-02-16T18:01:38.124Z,38.77
2018-02-16T18:04:06.008Z,37.63
2018-02-16T18:06:33.667Z,39.33
2018-02-16T18:09:01.445Z,36.43
2018-02-16T18:11:29.306Z,35.70
2018-02-16T18:13:56.956Z,46.73
2018-02-16T18:16:24.576Z,43.70
2018-02-16T18:18:52.263Z,40.50
2018-02-16T18:21:20.048Z,44.07
2018-02-16T18:23:47.774Z,48.47
2018-02-16T18:26:16.199Z,50.83
2018-02-16T18:28:44.290Z,51.37
2018-02-16T18:31:11.988Z,41.40
2018-02-16T18:33:40.391Z,44.60
2018-02-16T18:36:08.452Z,44.67
2018-02-16T18:38:36.086Z,53.13
2018-02-16T18:41:04.525Z,67.20
2018-02-16T18:43:32.254Z,56.67
2018-02-16T18:46:00.654Z,95.83
2018-02-16T18:48:28.399Z,46.40
2018-02-16T18:50:56.826Z,47.20
2018-02-16T18:53:24.549Z,48.03
2018-02-16T18:55:52.250Z,45.90
2018-02-16T18:58:20.056Z,41.07
2018-02-16T19:00:47.776Z,42.80
2018-02-16T19:03:16.340Z,42.47
2018-02-16T19:05:44.069Z,40.33
2018-02-16T19:08:11.784Z,42.37
2018-02-16T19:10:39.546Z,41.07
2018-02-16T19:13:07.258Z,39.77
2018-02-16T19:15:35.741Z,40.50
2018-02-16T19:18:04.199Z,40.87
2018-02-16T19:20:31.954Z,49.77
2018-02-16T19:22:59.649Z,48.40
2018-02-16T19:25:27.325Z,53.37
2018-02-16T19:27:55.133Z,51.07
2018-02-16T19:30:22.938Z,51.63
2018-02-16T19:32:51.400Z,59.13
2018-02-16T19:35:19.887Z,52.37
2018-02-16T19:37:48.331Z,44.57
2018-02-16T19:40:15.992Z,51.40
2018-02-16T19:42:43.637Z,45.33
2018-02-16T19:45:11.480Z,46.13
2018-02-16T19:47:39.168Z,45.53
2018-02-16T19:50:06.921Z,41.43
2018-02-16T19:52:34.678Z,42.10
2018-02-16T19:55:02.343Z,39.87
2018-02-16T19:57:30.093Z,40.53
2018-02-16T19:59:57.771Z,42.33
2018-02-16T20:02:25.576Z,45.53
2018-02-16T20:04:53.283Z,42.10
2018-02-16T20:07:21.042Z,41.03
2018-02-16T20:09:48.725Z,41.93
2018-02-16T20:12:16.584Z,38.13
2018-02-16T20:14:44.268Z,41.17
2018-02-16T20:17:12.074Z,42.17
2018-02-16T20:19:40.567Z,41.13
2018-02-16T20:22:09.080Z,41.33
2018-02-16T20:24:36.787Z,44.90
2018-02-16T20:27:04.571Z,42.57
2018-02-16T20:29:33.060Z,42.67
2018-02-16T20:32:01.652Z,40.27
2018-02-16T20:34:29.377Z,38.77
2018-02-16T20:36:57.128Z,39.97
2018-02-16T20:39:25.719Z,37.17
2018-02-16T20:41:53.404Z,37.07
2018-02-16T20:44:21.208Z,37.37
2018-02-16T20:46:48.898Z,38.63
2018-02-16T20:49:16.730Z,40.50
2018-02-16T20:51:44.665Z,39.73
2018-02-16T20:54:13.188Z,39.50
2018-02-16T20:56:41.241Z,39.90
2018-02-16T20:59:09.009Z,38.10
2018-02-16T21:01:36.952Z,40.17
2018-02-16T21:04:05.722Z,40.70
2018-02-16T21:06:34.753Z,41.00
2018-02-16T21:09:02.655Z,43.20
2018-02-16T21:11:30.343Z,39.93
2018-02-16T21:13:58.094Z,42.00
2018-02-16T21:16:25.948Z,41.20
2018-02-16T21:18:53.932Z,40.43
2018-02-16T21:21:21.730Z,40.57
2018-02-16T21:23:50.207Z,39.40
2018-02-16T21:26:17.971Z,40.97
2018-02-16T21:28:46.389Z,36.80
2018-02-16T21:31:14.249Z,38.80
2018-02-16T21:33:43.219Z,40.40
2018-02-16T21:36:10.892Z,37.23
2018-02-16T21:38:38.550Z,36.47
2018-02-16T21:41:06.248Z,35.23
2018-02-16T21:43:34.067Z,34.80
2018-02-16T21:46:01.829Z,34.97
2018-02-16T21:48:29.568Z,36.93
2018-02-16T21:50:57.298Z,37.33
2018-02-16T21:53:25.019Z,36.77
2018-02-16T21:55:52.671Z,37.60
2018-02-16T21:58:21.173Z,38.20
2018-02-16T22:00:48.884Z,36.87
2018-02-16T22:03:16.578Z,37.93
2018-02-16T22:05:44.236Z,38.43
2018-02-16T22:08:12.216Z,36.97
2018-02-16T22:10:40.588Z,33.90
2018-02-16T22:13:08.975Z,35.60
2018-02-16T22:15:36.648Z,35.27
2018-02-16T22:18:04.537Z,30.37
2018-02-16T22:20:32.564Z,32.10
2018-02-16T22:23:00.985Z,32.20
2018-02-16T22:25:28.645Z,30.60
2018-02-16T22:27:56.355Z,32.43
2018-02-16T22:30:24.868Z,33.43
2018-02-16T22:32:52.497Z,33.93
2018-02-16T22:35:21.186Z,33.17
2018-02-16T22:37:48.879Z,32.57
2018-02-16T22:40:16.585Z,32.00
2018-02-16T22:42:44.297Z,32.33
2018-02-16T22:45:11.936Z,33.07
2018-02-16T22:47:40.821Z,36.60
2018-02-16T22:50:09.270Z,36.57
2018-02-16T22:52:37.507Z,30.80
2018-02-16T22:55:05.259Z,34.63
2018-02-16T22:57:32.956Z,33.73
2018-02-16T23:00:00.715Z,31.67
2018-02-16T23:02:28.385Z,33.20
2018-02-16T23:04:56.150Z,37.67
2018-02-16T23:07:23.877Z,32.50
2018-02-16T23:09:51.560Z,34.73
2018-02-16T23:12:19.225Z,36.43
2018-02-16T23:14:46.883Z,33.23
2018-02-16T23:17:14.896Z,35.67
2018-02-16T23:19:42.741Z,32.13
2018-02-16T23:22:10.660Z,37.57
2018-02-16T23:24:38.575Z,32.30
2018-02-16T23:27:06.222Z,33.17
2018-02-16T23:29:34.022Z,33.70
2018-02-16T23:32:01.693Z,33.00
2018-02-16T23:34:29.321Z,34.40
2018-02-16T23:36:57.000Z,32.23
2018-02-16T23:39:24.657Z,33.33
2018-02-16T23:41:52.345Z,31.87
2018-02-16T23:44:20.707Z,31.53
2018-02-16T23:46:48.330Z,31.53
2018-02-16T23:49:16.386Z,34.43
2018-02-16T23:51:44.105Z,34.43
2018-02-16T23:54:11.745Z,33.60
2018-02-16T23:56:39.410Z,36.67
2018-02-16T23:59:07.042Z,33.83
